Latest Weather Observations for Warburto Point

IDS60801

Issued at 10:31 am CST Wednesday 27 July 2016 (issued every 30 minutes, with the page automatically refreshed every 10 minutes)

About weather observations | Map of weather stations | Latest weather observations for SA | Other Formats
Station Details ID: 022053 Name: WARBURTO POINT Lat: -34.00 Lon: 137.53 Height: 1.0 m
Data from the previous 72 hours. | See also: Recent months for locations in South Australia
Date/Time
CST
Temp
°C
App
Temp
°C
Dew
Point
°C
Rel
Hum
%
Delta-T
°C
Wind Press
QNH
hPa
Press
MSL
hPa
Rain since
9am
mm
Dir  Spd
km/h
Gust
km/h
Spd
kts
Gust
kts
27/10:30am - - - - - SSE 7 11 4 6 - - -
27/10:00am - - - - - SSE 13 15 7 8 - - -
27/09:30am - - - - - SSE 13 17 7 9 - - -
27/09:00am - - - - - SSE 17 19 9 10 - - -
27/08:30am - - - - - S 22 30 12 16 - - -
27/08:00am - - - - - S 24 30 13 16 - - -
27/07:30am - - - - - S 28 33 15 18 - - -
27/07:00am - - - - - S 30 35 16 19 - - -
27/06:30am - - - - - SSW 28 35 15 19 - - -
27/06:00am - - - - - SSW 33 44 18 24 - - -
27/05:30am - - - - - SSW 33 41 18 22 - - -
27/05:00am - - - - - SSW 41 52 22 28 - - -
27/04:30am - - - - - SSW 37 52 20 28 - - -
27/04:23am - - - - - SSW 33 52 18 28 - - -
27/04:00am - - - - - SSW 35 48 19 26 - - -
27/03:30am - - - - - SW 33 41 18 22 - - -
27/03:00am - - - - - SW 35 46 19 25 - - -
27/02:30am - - - - - WSW 32 48 17 26 - - -
27/02:00am - - - - - WSW 37 52 20 28 - - -
27/01:30am - - - - - WSW 30 41 16 22 - - -
27/01:00am - - - - - WSW 33 52 18 28 - - -
27/12:30am - - - - - WSW 30 37 16 20 - - -
27/12:10am - - - - - WSW 33 52 18 28 - - -
27/12:00am - - - - - WSW 37 50 20 27 - - -
 
Date/Time
CST
Temp
°C
App
Temp
°C
Dew
Point
°C
Rel
Hum
%
Delta-T
°C
Wind Press
QNH
hPa
Press
MSL
hPa
Rain since
9am
mm
Dir  Spd
km/h
Gust
km/h
Spd
kts
Gust
kts
26/11:30pm - - - - - WSW 37 50 20 27 - - -
26/11:00pm - - - - - WSW 37 50 20 27 - - -
26/10:30pm - - - - - WSW 35 48 19 26 - - -
26/10:00pm - - - - - WSW 35 46 19 25 - - -
26/09:48pm - - - - - WSW 44 63 24 34 - - -
26/09:30pm - - - - - WSW 41 54 22 29 - - -
26/09:02pm - - - - - WSW 37 56 20 30 - - -
26/09:00pm - - - - - WSW 37 52 20 28 - - -
26/08:30pm - - - - - WSW 35 50 19 27 - - -
26/08:00pm - - - - - WSW 39 54 21 29 - - -
26/07:30pm - - - - - WSW 50 70 27 38 - - -
26/07:24pm - - - - - W 50 69 27 37 - - -
26/07:23pm - - - - - W 50 69 27 37 - - -
26/07:17pm - - - - - WNW 48 69 26 37 - - -
26/07:00pm - - - - - WNW 52 65 28 35 - - -
26/06:41pm - - - - - WNW 50 69 27 37 - - -
26/06:30pm - - - - - WNW 48 59 26 32 - - -
26/06:00pm - - - - - WNW 44 56 24 30 - - -
26/05:30pm - - - - - WNW 46 56 25 30 - - -
26/05:13pm - - - - - WNW 50 69 27 37 - - -
26/05:00pm - - - - - WNW 46 61 25 33 - - -
26/04:30pm - - - - - WNW 43 56 23 30 - - -
26/04:00pm - - - - - WNW 48 67 26 36 - - -
26/03:55pm - - - - - WNW 46 67 25 36 - - -
26/03:00pm - - - - - WNW 44 59 24 32 - - -
26/02:38pm - - - - - NW 32 52 17 28 - - -
26/02:30pm - - - - - NW 28 33 15 18 - - -
26/02:00pm - - - - - NW 32 39 17 21 - - -
26/01:30pm - - - - - WNW 35 48 19 26 - - -
26/01:00pm - - - - - NW 35 44 19 24 - - -
26/12:30pm - - - - - NW 35 43 19 23 - - -
26/12:00pm - - - - - NW 35 46 19 25 - - -
26/11:30am - - - - - NNW 33 48 18 26 - - -
26/11:00am - - - - - NNW 32 37 17 20 - - -
26/10:30am - - - - - NNW 33 39 18 21 - - -
26/10:00am - - - - - NW 30 33 16 18 - - -
26/09:30am - - - - - NW 32 35 17 19 - - -
26/09:00am - - - - - NW 32 37 17 20 - - -
26/08:30am - - - - - NNW 28 33 15 18 - - -
26/08:00am - - - - - NW 28 32 15 17 - - -
26/07:30am - - - - - NW 24 28 13 15 - - -
26/07:00am - - - - - WNW 26 32 14 17 - - -
26/06:30am - - - - - WNW 24 30 13 16 - - -
26/06:00am - - - - - WNW 24 30 13 16 - - -
26/05:30am - - - - - W 24 32 13 17 - - -
26/05:00am - - - - - W 28 33 15 18 - - -
26/04:30am - - - - - W 26 35 14 19 - - -
26/04:00am - - - - - W 26 33 14 18 - - -
26/03:30am - - - - - W 26 32 14 17 - - -
26/03:00am - - - - - W 28 33 15 18 - - -
26/02:30am - - - - - W 22 32 12 17 - - -
26/02:00am - - - - - W 26 33 14 18 - - -
26/01:30am - - - - - W 26 35 14 19 - - -
26/01:00am - - - - - WSW 26 33 14 18 - - -
26/12:30am - - - - - WSW 28 35 15 19 - - -
26/12:00am - - - - - WSW 26 35 14 19 - - -
 
Date/Time
CST
Temp
°C
App
Temp
°C
Dew
Point
°C
Rel
Hum
%
Delta-T
°C
Wind Press
QNH
hPa
Press
MSL
hPa
Rain since
9am
mm
Dir  Spd
km/h
Gust
km/h
Spd
kts
Gust
kts
25/11:30pm - - - - - WSW 28 37 15 20 - - -
25/11:00pm - - - - - WSW 26 33 14 18 - - -
25/10:30pm - - - - - WSW 26 35 14 19 - - -
25/10:00pm - - - - - WSW 28 37 15 20 - - -
25/09:30pm - - - - - WSW 32 39 17 21 - - -
25/09:15pm - - - - - WSW 32 50 17 27 - - -
25/09:00pm - - - - - WSW 28 35 15 19 - - -
25/08:30pm - - - - - WSW 26 32 14 17 - - -
25/08:00pm - - - - - WSW 28 35 15 19 - - -
25/07:30pm - - - - - WSW 33 41 18 22 - - -
25/07:00pm - - - - - SW 28 37 15 20 - - -
25/06:30pm - - - - - WSW 32 39 17 21 - - -
25/06:00pm - - - - - WSW 30 37 16 20 - - -
25/05:30pm - - - - - WSW 32 41 17 22 - - -
25/05:00pm - - - - - WSW 33 41 18 22 - - -
25/04:30pm - - - - - WSW 41 54 22 29 - - -
25/04:22pm - - - - - W 39 52 21 28 - - -
25/04:00pm - - - - - WNW 35 46 19 25 - - -
25/03:30pm - - - - - WNW 39 52 21 28 - - -
25/03:00pm - - - - - NW 39 52 21 28 - - -
25/02:30pm - - - - - NW 37 48 20 26 - - -
25/02:00pm - - - - - WNW 35 43 19 23 - - -
25/01:30pm - - - - - NW 35 44 19 24 - - -
25/01:00pm - - - - - NW 33 39 18 21 - - -
25/12:30pm - - - - - WNW 35 44 19 24 - - -
25/12:00pm - - - - - NW 35 43 19 23 - - -
25/11:30am - - - - - NNW 32 37 17 20 - - -
25/11:00am - - - - - NNW 35 43 19 23 - - -
25/10:30am - - - - - NW 37 41 20 22 - - -
25/10:00am - - - - - NW 35 44 19 24 - - -
25/09:30am - - - - - NW 35 46 19 25 - - -
25/09:00am - - - - - NW 33 41 18 22 - - -
25/08:30am - - - - - NW 35 43 19 23 - - -
25/08:00am - - - - - NW 33 41 18 22 - - -
25/06:30am - - - - - NW 30 35 16 19 - - -
25/06:00am - - - - - WNW 32 39 17 21 - - -
25/05:30am - - - - - WNW 30 37 16 20 - - -
25/05:00am - - - - - W 30 35 16 19 - - -
25/04:30am - - - - - W 32 37 17 20 - - -
25/04:00am - - - - - W 28 33 15 18 - - -
25/03:30am - - - - - W 28 33 15 18 - - -
25/03:00am - - - - - W 28 33 15 18 - - -
25/02:30am - - - - - WSW 30 37 16 20 - - -
25/02:00am - - - - - W 32 39 17 21 - - -
25/01:30am - - - - - W 33 41 18 22 - - -
25/01:00am - - - - - WSW 33 44 18 24 - - -
25/12:30am - - - - - W 35 48 19 26 - - -
25/12:00am - - - - - W 39 48 21 26 - - -
 
Date/Time
CST
Temp
°C
App
Temp
°C
Dew
Point
°C
Rel
Hum
%
Delta-T
°C
Wind Press
QNH
hPa
Press
MSL
hPa
Rain since
9am
mm
Dir  Spd
km/h
Gust
km/h
Spd
kts
Gust
kts
24/11:30pm - - - - - W 37 52 20 28 - - -
24/11:26pm - - - - - W 37 56 20 30 - - -
24/11:00pm - - - - - WSW 43 54 23 29 - - -
24/10:30pm - - - - - W 41 52 22 28 - - -
24/10:00pm - - - - - WSW 43 57 23 31 - - -
24/09:30pm - - - - - W 41 54 22 29 - - -
24/09:00pm - - - - - W 43 59 23 32 - - -
24/08:51pm - - - - - W 41 59 22 32 - - -
24/08:30pm - - - - - W 41 52 22 28 - - -
24/08:06pm - - - - - W 46 69 25 37 - - -
24/08:00pm - - - - - W 46 57 25 31 - - -
24/07:30pm - - - - - W 44 61 24 33 - - -
24/07:00pm - - - - - W 43 56 23 30 - - -
24/06:30pm - - - - - W 44 56 24 30 - - -
24/06:00pm - - - - - W 43 54 23 29 - - -
24/05:30pm - - - - - W 48 59 26 32 - - -
24/05:00pm - - - - - W 44 57 24 31 - - -
24/04:30pm - - - - - W 52 70 28 38 - - -
24/04:08pm - - - - - W 48 67 26 36 - - -
24/04:00pm - - - - - W 43 57 23 31 - - -
24/03:30pm - - - - - W 43 63 23 34 - - -
24/03:19pm - - - - - W 41 65 22 35 - - -
24/03:00pm - - - - - W 43 54 23 29 - - -
24/02:44pm - - - - - W 39 59 21 32 - - -
24/02:30pm - - - - - W 43 54 23 29 - - -
24/02:10pm - - - - - W 46 65 25 35 - - -
24/02:00pm - - - - - W 50 67 27 36 - - -
24/01:33pm - - - - - W 41 59 22 32 - - -
24/01:30pm - - - - - W 43 56 23 30 - - -
24/01:00pm - - - - - W 50 65 27 35 - - -
24/12:58pm - - - - - W 46 65 25 35 - - -
24/12:52pm - - - - - W 35 57 19 31 - - -
24/12:30pm - - - - - W 35 44 19 24 - - -
24/12:00pm - - - - - WNW 41 50 22 27 - - -
24/11:30am - - - - - WNW 41 56 22 30 - - -
24/11:00am - - - - - WNW 43 54 23 29 - - -

Other Formats:

Comma delimited format used in spreadsheet applications
http://www.bom.gov.au/fwo/IDS60801/IDS60801.94666.axf

JavaScript Object Notation format (JSON) in row-major order
http://www.bom.gov.au/fwo/IDS60801/IDS60801.94666.json